sensor_id;sensor_type;location;lat;lon;timestamp;P1;durP1;ratioP1;P2;durP2;ratioP2
47519;SDS011;33252;48.122;11.538;2023-05-23T00:01:46;11.45;;;9.15;;
47519;SDS011;33252;48.122;11.538;2023-05-23T00:04:12;10.35;;;8.38;;
47519;SDS011;33252;48.122;11.538;2023-05-23T00:06:41;12.50;;;9.63;;
47519;SDS011;33252;48.122;11.538;2023-05-23T00:09:11;12.02;;;9.32;;
47519;SDS011;33252;48.122;11.538;2023-05-23T00:11:37;11.68;;;9.65;;
47519;SDS011;33252;48.122;11.538;2023-05-23T00:14:04;11.70;;;10.13;;
47519;SDS011;33252;48.122;11.538;2023-05-23T00:16:32;12.88;;;10.13;;
47519;SDS011;33252;48.122;11.538;2023-05-23T00:18:58;14.90;;;10.23;;
47519;SDS011;33252;48.122;11.538;2023-05-23T00:21:25;11.70;;;9.68;;
47519;SDS011;33252;48.122;11.538;2023-05-23T00:23:53;11.75;;;10.07;;
47519;SDS011;33252;48.122;11.538;2023-05-23T00:26:19;11.63;;;10.20;;
47519;SDS011;33252;48.122;11.538;2023-05-23T00:28:45;14.55;;;10.82;;
47519;SDS011;33252;48.122;11.538;2023-05-23T00:31:11;13.60;;;10.80;;
47519;SDS011;33252;48.122;11.538;2023-05-23T00:33:37;10.35;;;9.18;;
47519;SDS011;33252;48.122;11.538;2023-05-23T00:36:03;13.48;;;10.65;;
47519;SDS011;33252;48.122;11.538;2023-05-23T00:38:30;12.80;;;10.70;;
47519;SDS011;33252;48.122;11.538;2023-05-23T00:40:56;12.15;;;10.35;;
47519;SDS011;33252;48.122;11.538;2023-05-23T00:43:22;15.15;;;9.52;;
47519;SDS011;33252;48.122;11.538;2023-05-23T00:45:48;10.75;;;8.93;;
47519;SDS011;33252;48.122;11.538;2023-05-23T00:48:14;11.82;;;9.48;;
47519;SDS011;33252;48.122;11.538;2023-05-23T00:50:40;12.55;;;9.50;;
47519;SDS011;33252;48.122;11.538;2023-05-23T00:53:06;16.70;;;10.43;;
47519;SDS011;33252;48.122;11.538;2023-05-23T00:55:32;12.00;;;9.82;;
47519;SDS011;33252;48.122;11.538;2023-05-23T00:57:59;12.43;;;9.82;;
47519;SDS011;33252;48.122;11.538;2023-05-23T01:00:25;13.95;;;9.55;;
47519;SDS011;33252;48.122;11.538;2023-05-23T01:02:51;11.75;;;9.30;;
47519;SDS011;33252;48.122;11.538;2023-05-23T01:05:18;12.00;;;9.40;;
47519;SDS011;33252;48.122;11.538;2023-05-23T01:07:47;13.57;;;9.15;;
47519;SDS011;33252;48.122;11.538;2023-05-23T01:10:13;13.23;;;10.07;;
47519;SDS011;33252;48.122;11.538;2023-05-23T01:12:45;12.60;;;10.13;;
47519;SDS011;33252;48.122;11.538;2023-05-23T01:15:16;13.32;;;9.70;;
47519;SDS011;33252;48.122;11.538;2023-05-23T01:17:50;12.38;;;9.57;;
47519;SDS011;33252;48.122;11.538;2023-05-23T01:20:21;11.63;;;9.27;;
47519;SDS011;33252;48.122;11.538;2023-05-23T01:25:46;14.93;;;10.05;;
47519;SDS011;33252;48.122;11.538;2023-05-23T01:28:15;11.45;;;10.25;;
47519;SDS011;33252;48.122;11.538;2023-05-23T01:30:43;11.52;;;9.85;;
47519;SDS011;33252;48.122;11.538;2023-05-23T01:33:10;13.63;;;10.05;;
47519;SDS011;33252;48.122;11.538;2023-05-23T01:35:38;12.38;;;9.75;;
47519;SDS011;33252;48.122;11.538;2023-05-23T01:38:05;12.93;;;9.93;;
47519;SDS011;33252;48.122;11.538;2023-05-23T01:40:31;12.45;;;10.13;;
47519;SDS011;33252;48.122;11.538;2023-05-23T01:42:57;12.32;;;9.98;;
47519;SDS011;33252;48.122;11.538;2023-05-23T01:45:24;10.95;;;9.85;;
47519;SDS011;33252;48.122;11.538;2023-05-23T01:47:50;10.57;;;9.15;;
47519;SDS011;33252;48.122;11.538;2023-05-23T01:50:17;11.05;;;9.55;;
47519;SDS011;33252;48.122;11.538;2023-05-23T01:52:43;11.65;;;9.55;;
47519;SDS011;33252;48.122;11.538;2023-05-23T01:55:10;13.38;;;9.75;;
47519;SDS011;33252;48.122;11.538;2023-05-23T01:57:38;11.90;;;10.45;;
47519;SDS011;33252;48.122;11.538;2023-05-23T02:00:07;13.90;;;10.45;;
47519;SDS011;33252;48.122;11.538;2023-05-23T02:02:36;12.40;;;8.93;;
47519;SDS011;33252;48.122;11.538;2023-05-23T02:05:02;12.55;;;9.98;;
47519;SDS011;33252;48.122;11.538;2023-05-23T02:07:28;13.05;;;9.50;;
47519;SDS011;33252;48.122;11.538;2023-05-23T02:09:54;12.88;;;10.32;;
47519;SDS011;33252;48.122;11.538;2023-05-23T02:12:20;15.32;;;10.80;;
47519;SDS011;33252;48.122;11.538;2023-05-23T02:14:46;14.60;;;10.18;;
47519;SDS011;33252;48.122;11.538;2023-05-23T02:17:12;15.02;;;10.52;;
47519;SDS011;33252;48.122;11.538;2023-05-23T02:19:40;13.95;;;11.02;;
47519;SDS011;33252;48.122;11.538;2023-05-23T02:22:07;13.70;;;10.95;;
47519;SDS011;33252;48.122;11.538;2023-05-23T02:24:33;13.05;;;10.82;;
47519;SDS011;33252;48.122;11.538;2023-05-23T02:26:59;13.85;;;11.30;;
47519;SDS011;33252;48.122;11.538;2023-05-23T02:29:25;16.42;;;10.82;;
47519;SDS011;33252;48.122;11.538;2023-05-23T02:31:51;12.13;;;10.15;;
47519;SDS011;33252;48.122;11.538;2023-05-23T02:34:17;11.63;;;10.00;;
47519;SDS011;33252;48.122;11.538;2023-05-23T02:36:43;12.80;;;10.30;;
47519;SDS011;33252;48.122;11.538;2023-05-23T02:39:09;12.43;;;9.63;;
47519;SDS011;33252;48.122;11.538;2023-05-23T02:41:35;13.15;;;9.93;;
47519;SDS011;33252;48.122;11.538;2023-05-23T02:44:01;12.95;;;10.52;;
47519;SDS011;33252;48.122;11.538;2023-05-23T02:46:27;14.50;;;10.35;;
47519;SDS011;33252;48.122;11.538;2023-05-23T02:48:53;13.95;;;10.52;;
47519;SDS011;33252;48.122;11.538;2023-05-23T02:51:20;18.23;;;11.50;;
47519;SDS011;33252;48.122;11.538;2023-05-23T02:53:46;14.93;;;11.30;;
47519;SDS011;33252;48.122;11.538;2023-05-23T02:56:12;14.65;;;11.38;;
47519;SDS011;33252;48.122;11.538;2023-05-23T02:58:40;16.92;;;11.20;;
47519;SDS011;33252;48.122;11.538;2023-05-23T03:01:06;13.00;;;11.07;;
47519;SDS011;33252;48.122;11.538;2023-05-23T03:03:32;16.10;;;11.60;;
47519;SDS011;33252;48.122;11.538;2023-05-23T03:05:59;16.75;;;12.15;;
47519;SDS011;33252;48.122;11.538;2023-05-23T03:08:25;20.10;;;13.93;;
47519;SDS011;33252;48.122;11.538;2023-05-23T03:10:51;13.75;;;11.48;;
47519;SDS011;33252;48.122;11.538;2023-05-23T03:13:17;15.02;;;11.68;;
47519;SDS011;33252;48.122;11.538;2023-05-23T03:15:43;14.43;;;11.27;;
47519;SDS011;33252;48.122;11.538;2023-05-23T03:18:10;15.43;;;12.35;;
47519;SDS011;33252;48.122;11.538;2023-05-23T03:20:36;15.57;;;12.88;;
47519;SDS011;33252;48.122;11.538;2023-05-23T03:23:02;19.83;;;13.63;;
47519;SDS011;33252;48.122;11.538;2023-05-23T03:25:28;16.48;;;11.48;;
47519;SDS011;33252;48.122;11.538;2023-05-23T03:27:54;17.10;;;12.60;;
47519;SDS011;33252;48.122;11.538;2023-05-23T03:30:20;16.10;;;11.98;;
47519;SDS011;33252;48.122;11.538;2023-05-23T03:32:46;16.20;;;12.73;;
47519;SDS011;33252;48.122;11.538;2023-05-23T03:35:13;15.45;;;12.35;;
47519;SDS011;33252;48.122;11.538;2023-05-23T03:37:39;13.93;;;11.52;;
47519;SDS011;33252;48.122;11.538;2023-05-23T03:40:06;17.60;;;11.98;;
47519;SDS011;33252;48.122;11.538;2023-05-23T03:42:32;17.63;;;13.05;;
47519;SDS011;33252;48.122;11.538;2023-05-23T03:44:58;16.80;;;13.75;;
47519;SDS011;33252;48.122;11.538;2023-05-23T03:47:24;18.25;;;13.18;;
47519;SDS011;33252;48.122;11.538;2023-05-23T03:49:50;16.98;;;12.98;;
47519;SDS011;33252;48.122;11.538;2023-05-23T03:52:16;16.80;;;12.60;;
47519;SDS011;33252;48.122;11.538;2023-05-23T03:54:43;17.48;;;13.75;;
47519;SDS011;33252;48.122;11.538;2023-05-23T03:57:09;17.90;;;13.90;;
47519;SDS011;33252;48.122;11.538;2023-05-23T03:59:35;17.70;;;13.25;;
47519;SDS011;33252;48.122;11.538;2023-05-23T04:02:01;19.02;;;13.23;;
47519;SDS011;33252;48.122;11.538;2023-05-23T04:04:28;20.17;;;14.45;;
47519;SDS011;33252;48.122;11.538;2023-05-23T04:06:54;20.05;;;14.07;;
47519;SDS011;33252;48.122;11.538;2023-05-23T04:09:20;19.92;;;13.30;;
47519;SDS011;33252;48.122;11.538;2023-05-23T04:11:46;20.17;;;13.32;;
47519;SDS011;33252;48.122;11.538;2023-05-23T04:14:12;18.10;;;14.10;;
47519;SDS011;33252;48.122;11.538;2023-05-23T04:16:38;21.35;;;14.38;;
47519;SDS011;33252;48.122;11.538;2023-05-23T04:19:08;19.08;;;13.57;;
47519;SDS011;33252;48.122;11.538;2023-05-23T04:21:36;19.52;;;14.13;;
47519;SDS011;33252;48.122;11.538;2023-05-23T04:24:02;20.35;;;14.38;;
47519;SDS011;33252;48.122;11.538;2023-05-23T04:26:28;21.80;;;14.38;;
47519;SDS011;33252;48.122;11.538;2023-05-23T04:28:54;19.55;;;13.90;;
47519;SDS011;33252;48.122;11.538;2023-05-23T04:31:25;20.25;;;14.50;;
47519;SDS011;33252;48.122;11.538;2023-05-23T04:33:51;19.38;;;14.45;;
47519;SDS011;33252;48.122;11.538;2023-05-23T04:36:18;23.20;;;14.68;;
47519;SDS011;33252;48.122;11.538;2023-05-23T04:38:44;22.23;;;13.98;;
47519;SDS011;33252;48.122;11.538;2023-05-23T04:41:10;23.92;;;15.35;;
47519;SDS011;33252;48.122;11.538;2023-05-23T04:43:36;23.10;;;15.48;;
47519;SDS011;33252;48.122;11.538;2023-05-23T04:46:07;23.52;;;16.33;;
47519;SDS011;33252;48.122;11.538;2023-05-23T04:48:34;21.08;;;15.32;;
47519;SDS011;33252;48.122;11.538;2023-05-23T04:51:01;23.80;;;15.82;;
47519;SDS011;33252;48.122;11.538;2023-05-23T04:53:33;22.23;;;15.93;;
47519;SDS011;33252;48.122;11.538;2023-05-23T04:56:00;21.92;;;15.52;;
47519;SDS011;33252;48.122;11.538;2023-05-23T04:58:26;23.27;;;15.43;;
47519;SDS011;33252;48.122;11.538;2023-05-23T05:00:52;22.63;;;15.80;;
47519;SDS011;33252;48.122;11.538;2023-05-23T05:03:18;19.73;;;15.57;;
47519;SDS011;33252;48.122;11.538;2023-05-23T05:05:44;21.70;;;16.23;;
47519;SDS011;33252;48.122;11.538;2023-05-23T05:08:10;21.95;;;15.25;;
47519;SDS011;33252;48.122;11.538;2023-05-23T05:10:38;19.50;;;14.48;;
47519;SDS011;33252;48.122;11.538;2023-05-23T05:13:05;21.15;;;15.93;;
47519;SDS011;33252;48.122;11.538;2023-05-23T05:15:31;21.58;;;15.13;;
47519;SDS011;33252;48.122;11.538;2023-05-23T05:17:57;19.63;;;14.85;;
47519;SDS011;33252;48.122;11.538;2023-05-23T05:20:23;21.83;;;15.18;;
47519;SDS011;33252;48.122;11.538;2023-05-23T05:22:54;21.40;;;15.55;;
47519;SDS011;33252;48.122;11.538;2023-05-23T05:25:21;21.25;;;16.55;;
47519;SDS011;33252;48.122;11.538;2023-05-23T05:27:47;19.88;;;14.35;;
47519;SDS011;33252;48.122;11.538;2023-05-23T05:30:13;25.83;;;16.23;;
47519;SDS011;33252;48.122;11.538;2023-05-23T05:32:39;23.10;;;15.98;;
47519;SDS011;33252;48.122;11.538;2023-05-23T05:35:06;22.10;;;15.02;;
47519;SDS011;33252;48.122;11.538;2023-05-23T05:37:32;24.85;;;15.85;;
47519;SDS011;33252;48.122;11.538;2023-05-23T05:39:58;19.45;;;15.30;;
47519;SDS011;33252;48.122;11.538;2023-05-23T05:42:30;19.63;;;15.13;;
47519;SDS011;33252;48.122;11.538;2023-05-23T05:44:56;25.02;;;17.00;;
47519;SDS011;33252;48.122;11.538;2023-05-23T05:47:22;23.23;;;15.93;;
47519;SDS011;33252;48.122;11.538;2023-05-23T05:49:48;25.50;;;16.73;;
47519;SDS011;33252;48.122;11.538;2023-05-23T05:52:14;26.98;;;16.88;;
47519;SDS011;33252;48.122;11.538;2023-05-23T05:54:40;26.52;;;17.42;;
47519;SDS011;33252;48.122;11.538;2023-05-23T05:57:06;26.65;;;17.25;;
47519;SDS011;33252;48.122;11.538;2023-05-23T05:59:32;22.60;;;16.98;;
47519;SDS011;33252;48.122;11.538;2023-05-23T06:01:58;22.00;;;16.70;;
47519;SDS011;33252;48.122;11.538;2023-05-23T06:04:24;24.70;;;17.02;;
47519;SDS011;33252;48.122;11.538;2023-05-23T06:06:50;24.00;;;16.40;;
47519;SDS011;33252;48.122;11.538;2023-05-23T06:09:16;23.70;;;15.85;;
47519;SDS011;33252;48.122;11.538;2023-05-23T06:11:42;28.83;;;17.33;;
47519;SDS011;33252;48.122;11.538;2023-05-23T06:14:08;25.90;;;16.02;;
47519;SDS011;33252;48.122;11.538;2023-05-23T06:16:34;22.08;;;16.23;;
47519;SDS011;33252;48.122;11.538;2023-05-23T06:19:00;22.25;;;15.73;;
47519;SDS011;33252;48.122;11.538;2023-05-23T06:21:26;22.90;;;16.45;;
47519;SDS011;33252;48.122;11.538;2023-05-23T06:23:52;30.95;;;16.92;;
47519;SDS011;33252;48.122;11.538;2023-05-23T06:26:18;23.55;;;16.65;;
47519;SDS011;33252;48.122;11.538;2023-05-23T06:28:44;24.02;;;16.40;;
47519;SDS011;33252;48.122;11.538;2023-05-23T06:31:11;25.60;;;18.95;;
47519;SDS011;33252;48.122;11.538;2023-05-23T06:33:37;22.98;;;17.63;;
47519;SDS011;33252;48.122;11.538;2023-05-23T06:36:03;24.83;;;18.52;;
47519;SDS011;33252;48.122;11.538;2023-05-23T06:38:30;23.60;;;16.92;;
47519;SDS011;33252;48.122;11.538;2023-05-23T06:40:59;23.25;;;17.05;;
47519;SDS011;33252;48.122;11.538;2023-05-23T06:43:26;25.48;;;16.67;;
47519;SDS011;33252;48.122;11.538;2023-05-23T06:45:52;25.50;;;18.27;;
47519;SDS011;33252;48.122;11.538;2023-05-23T06:48:18;26.33;;;16.88;;
47519;SDS011;33252;48.122;11.538;2023-05-23T06:50:44;23.02;;;17.25;;
47519;SDS011;33252;48.122;11.538;2023-05-23T06:53:10;25.33;;;19.17;;
47519;SDS011;33252;48.122;11.538;2023-05-23T06:55:36;29.00;;;19.02;;
47519;SDS011;33252;48.122;11.538;2023-05-23T06:58:03;30.95;;;18.83;;
47519;SDS011;33252;48.122;11.538;2023-05-23T07:00:29;31.75;;;19.60;;
47519;SDS011;33252;48.122;11.538;2023-05-23T07:02:55;24.48;;;17.95;;
47519;SDS011;33252;48.122;11.538;2023-05-23T07:05:27;28.85;;;19.27;;
47519;SDS011;33252;48.122;11.538;2023-05-23T07:07:53;27.58;;;19.33;;
47519;SDS011;33252;48.122;11.538;2023-05-23T07:10:19;28.50;;;19.98;;
47519;SDS011;33252;48.122;11.538;2023-05-23T07:12:46;28.63;;;18.65;;
47519;SDS011;33252;48.122;11.538;2023-05-23T07:15:12;32.08;;;21.33;;
47519;SDS011;33252;48.122;11.538;2023-05-23T07:17:39;26.13;;;17.98;;
47519;SDS011;33252;48.122;11.538;2023-05-23T07:20:05;27.95;;;19.20;;
47519;SDS011;33252;48.122;11.538;2023-05-23T07:22:32;33.25;;;23.20;;
47519;SDS011;33252;48.122;11.538;2023-05-23T07:24:58;29.98;;;19.58;;
47519;SDS011;33252;48.122;11.538;2023-05-23T07:27:25;29.83;;;20.23;;
47519;SDS011;33252;48.122;11.538;2023-05-23T07:29:51;28.85;;;19.45;;
47519;SDS011;33252;48.122;11.538;2023-05-23T07:32:17;31.17;;;20.88;;
47519;SDS011;33252;48.122;11.538;2023-05-23T07:34:43;27.70;;;20.10;;
47519;SDS011;33252;48.122;11.538;2023-05-23T07:37:09;26.48;;;19.98;;
47519;SDS011;33252;48.122;11.538;2023-05-23T07:39:35;28.38;;;18.42;;
47519;SDS011;33252;48.122;11.538;2023-05-23T07:42:01;33.58;;;20.52;;
47519;SDS011;33252;48.122;11.538;2023-05-23T07:44:28;27.95;;;18.70;;
47519;SDS011;33252;48.122;11.538;2023-05-23T07:46:54;29.45;;;20.30;;
47519;SDS011;33252;48.122;11.538;2023-05-23T07:49:20;30.98;;;21.50;;
47519;SDS011;33252;48.122;11.538;2023-05-23T07:51:46;27.38;;;19.73;;
47519;SDS011;33252;48.122;11.538;2023-05-23T07:54:12;25.85;;;18.98;;
47519;SDS011;33252;48.122;11.538;2023-05-23T07:56:38;26.40;;;19.65;;
47519;SDS011;33252;48.122;11.538;2023-05-23T07:59:04;24.17;;;18.88;;
47519;SDS011;33252;48.122;11.538;2023-05-23T08:01:30;28.13;;;18.02;;
47519;SDS011;33252;48.122;11.538;2023-05-23T08:03:56;26.63;;;20.40;;
47519;SDS011;33252;48.122;11.538;2023-05-23T08:06:22;28.38;;;21.02;;
47519;SDS011;33252;48.122;11.538;2023-05-23T08:08:48;28.48;;;20.83;;
47519;SDS011;33252;48.122;11.538;2023-05-23T08:11:14;27.88;;;20.08;;
47519;SDS011;33252;48.122;11.538;2023-05-23T08:13:40;32.13;;;21.17;;
47519;SDS011;33252;48.122;11.538;2023-05-23T08:16:06;27.73;;;19.55;;
47519;SDS011;33252;48.122;11.538;2023-05-23T08:18:32;31.08;;;21.70;;
47519;SDS011;33252;48.122;11.538;2023-05-23T08:20:58;28.33;;;19.50;;
47519;SDS011;33252;48.122;11.538;2023-05-23T08:23:27;30.50;;;22.38;;
47519;SDS011;33252;48.122;11.538;2023-05-23T08:25:53;29.83;;;21.85;;
47519;SDS011;33252;48.122;11.538;2023-05-23T08:28:20;30.73;;;21.02;;
47519;SDS011;33252;48.122;11.538;2023-05-23T08:30:46;28.83;;;20.77;;
47519;SDS011;33252;48.122;11.538;2023-05-23T08:33:12;28.50;;;19.98;;
47519;SDS011;33252;48.122;11.538;2023-05-23T08:35:38;28.45;;;19.60;;
47519;SDS011;33252;48.122;11.538;2023-05-23T08:38:05;30.55;;;19.67;;
47519;SDS011;33252;48.122;11.538;2023-05-23T08:40:32;27.75;;;18.88;;
47519;SDS011;33252;48.122;11.538;2023-05-23T08:43:00;28.00;;;20.88;;
47519;SDS011;33252;48.122;11.538;2023-05-23T08:45:26;27.85;;;19.58;;
47519;SDS011;33252;48.122;11.538;2023-05-23T08:47:55;29.67;;;19.73;;
47519;SDS011;33252;48.122;11.538;2023-05-23T08:50:25;31.52;;;20.00;;
47519;SDS011;33252;48.122;11.538;2023-05-23T08:55:24;28.67;;;18.77;;
47519;SDS011;33252;48.122;11.538;2023-05-23T08:57:52;29.35;;;22.45;;
47519;SDS011;33252;48.122;11.538;2023-05-23T09:00:18;29.90;;;21.95;;
47519;SDS011;33252;48.122;11.538;2023-05-23T09:02:44;31.77;;;20.73;;
47519;SDS011;33252;48.122;11.538;2023-05-23T09:05:11;28.95;;;19.67;;
47519;SDS011;33252;48.122;11.538;2023-05-23T09:07:38;31.08;;;21.42;;
47519;SDS011;33252;48.122;11.538;2023-05-23T09:10:04;31.58;;;21.83;;
47519;SDS011;33252;48.122;11.538;2023-05-23T09:12:31;31.48;;;22.88;;
47519;SDS011;33252;48.122;11.538;2023-05-23T09:14:57;31.00;;;21.08;;
47519;SDS011;33252;48.122;11.538;2023-05-23T09:17:23;32.65;;;21.52;;
47519;SDS011;33252;48.122;11.538;2023-05-23T09:19:49;31.70;;;20.90;;
47519;SDS011;33252;48.122;11.538;2023-05-23T09:22:16;32.00;;;21.77;;
47519;SDS011;33252;48.122;11.538;2023-05-23T09:24:49;30.25;;;22.20;;
47519;SDS011;33252;48.122;11.538;2023-05-23T09:27:16;29.40;;;19.55;;
47519;SDS011;33252;48.122;11.538;2023-05-23T09:29:43;30.63;;;21.45;;
47519;SDS011;33252;48.122;11.538;2023-05-23T09:32:11;31.60;;;21.38;;
47519;SDS011;33252;48.122;11.538;2023-05-23T09:34:57;28.15;;;19.90;;
47519;SDS011;33252;48.122;11.538;2023-05-23T09:37:30;29.83;;;22.15;;
47519;SDS011;33252;48.122;11.538;2023-05-23T09:39:58;29.98;;;20.83;;
47519;SDS011;33252;48.122;11.538;2023-05-23T09:42:24;28.90;;;20.92;;
47519;SDS011;33252;48.122;11.538;2023-05-23T09:44:50;28.80;;;19.90;;
47519;SDS011;33252;48.122;11.538;2023-05-23T09:47:16;27.75;;;20.30;;
47519;SDS011;33252;48.122;11.538;2023-05-23T09:49:43;27.02;;;19.77;;
47519;SDS011;33252;48.122;11.538;2023-05-23T09:52:09;33.63;;;22.92;;
47519;SDS011;33252;48.122;11.538;2023-05-23T09:54:35;32.95;;;22.33;;
47519;SDS011;33252;48.122;11.538;2023-05-23T09:57:05;38.83;;;23.17;;
47519;SDS011;33252;48.122;11.538;2023-05-23T09:59:34;34.00;;;22.00;;
47519;SDS011;33252;48.122;11.538;2023-05-23T10:02:02;32.10;;;23.08;;
47519;SDS011;33252;48.122;11.538;2023-05-23T10:04:31;31.45;;;22.08;;
47519;SDS011;33252;48.122;11.538;2023-05-23T10:07:12;32.92;;;21.95;;
47519;SDS011;33252;48.122;11.538;2023-05-23T10:09:39;32.05;;;22.58;;
47519;SDS011;33252;48.122;11.538;2023-05-23T10:14:43;34.35;;;23.95;;
47519;SDS011;33252;48.122;11.538;2023-05-23T10:17:11;30.65;;;23.08;;
47519;SDS011;33252;48.122;11.538;2023-05-23T10:19:47;34.60;;;24.25;;
47519;SDS011;33252;48.122;11.538;2023-05-23T10:22:16;40.22;;;22.55;;
47519;SDS011;33252;48.122;11.538;2023-05-23T10:24:43;30.48;;;22.60;;
47519;SDS011;33252;48.122;11.538;2023-05-23T10:27:10;33.30;;;23.25;;
47519;SDS011;33252;48.122;11.538;2023-05-23T10:29:36;32.85;;;24.83;;
47519;SDS011;33252;48.122;11.538;2023-05-23T10:32:02;37.00;;;24.90;;
47519;SDS011;33252;48.122;11.538;2023-05-23T10:37:01;31.42;;;22.38;;
47519;SDS011;33252;48.122;11.538;2023-05-23T10:42:08;33.97;;;23.05;;
47519;SDS011;33252;48.122;11.538;2023-05-23T10:44:36;33.38;;;23.30;;
47519;SDS011;33252;48.122;11.538;2023-05-23T10:47:02;33.33;;;22.60;;
47519;SDS011;33252;48.122;11.538;2023-05-23T10:52:07;32.92;;;22.92;;
47519;SDS011;33252;48.122;11.538;2023-05-23T10:54:34;30.45;;;21.88;;
47519;SDS011;33252;48.122;11.538;2023-05-23T10:57:04;31.80;;;22.27;;
47519;SDS011;33252;48.122;11.538;2023-05-23T10:59:30;30.40;;;20.83;;
47519;SDS011;33252;48.122;11.538;2023-05-23T11:01:56;27.35;;;20.73;;
47519;SDS011;33252;48.122;11.538;2023-05-23T11:04:26;27.63;;;20.80;;
47519;SDS011;33252;48.122;11.538;2023-05-23T11:06:52;25.55;;;19.65;;
47519;SDS011;33252;48.122;11.538;2023-05-23T11:09:19;26.35;;;19.95;;
47519;SDS011;33252;48.122;11.538;2023-05-23T11:19:38;22.35;;;16.77;;
47519;SDS011;33252;48.122;11.538;2023-05-23T11:22:07;22.83;;;16.63;;
47519;SDS011;33252;48.122;11.538;2023-05-23T11:24:49;23.70;;;17.83;;
47519;SDS011;33252;48.122;11.538;2023-05-23T11:27:16;27.37;;;16.17;;
47519;SDS011;33252;48.122;11.538;2023-05-23T11:29:45;22.73;;;17.27;;
47519;SDS011;33252;48.122;11.538;2023-05-23T11:32:21;18.80;;;15.10;;
47519;SDS011;33252;48.122;11.538;2023-05-23T11:34:48;19.63;;;15.60;;
47519;SDS011;33252;48.122;11.538;2023-05-23T11:37:14;23.17;;;17.20;;
47519;SDS011;33252;48.122;11.538;2023-05-23T11:39:41;21.27;;;15.85;;
47519;SDS011;33252;48.122;11.538;2023-05-23T11:42:07;19.45;;;15.98;;
47519;SDS011;33252;48.122;11.538;2023-05-23T11:44:33;21.95;;;16.40;;
47519;SDS011;33252;48.122;11.538;2023-05-23T11:47:03;23.65;;;17.45;;
47519;SDS011;33252;48.122;11.538;2023-05-23T11:49:30;22.17;;;16.63;;
47519;SDS011;33252;48.122;11.538;2023-05-23T11:51:57;21.02;;;16.60;;
47519;SDS011;33252;48.122;11.538;2023-05-23T11:54:27;23.88;;;17.88;;
47519;SDS011;33252;48.122;11.538;2023-05-23T11:56:53;24.05;;;17.05;;
47519;SDS011;33252;48.122;11.538;2023-05-23T11:59:20;20.50;;;15.57;;
47519;SDS011;33252;48.122;11.538;2023-05-23T12:01:46;20.60;;;15.85;;
47519;SDS011;33252;48.122;11.538;2023-05-23T12:04:13;22.85;;;17.05;;
47519;SDS011;33252;48.122;11.538;2023-05-23T12:06:39;22.27;;;16.02;;
47519;SDS011;33252;48.122;11.538;2023-05-23T12:09:06;21.33;;;16.38;;
47519;SDS011;33252;48.122;11.538;2023-05-23T12:11:32;20.30;;;17.60;;
47519;SDS011;33252;48.122;11.538;2023-05-23T12:13:59;20.20;;;15.85;;
47519;SDS011;33252;48.122;11.538;2023-05-23T12:16:30;21.90;;;17.85;;
47519;SDS011;33252;48.122;11.538;2023-05-23T12:18:56;18.80;;;15.45;;
47519;SDS011;33252;48.122;11.538;2023-05-23T12:21:26;21.00;;;15.90;;
47519;SDS011;33252;48.122;11.538;2023-05-23T12:24:14;18.48;;;15.98;;
47519;SDS011;33252;48.122;11.538;2023-05-23T12:29:17;19.65;;;16.38;;
47519;SDS011;33252;48.122;11.538;2023-05-23T12:31:46;18.80;;;14.75;;
47519;SDS011;33252;48.122;11.538;2023-05-23T12:34:12;18.75;;;15.52;;
47519;SDS011;33252;48.122;11.538;2023-05-23T12:36:38;20.85;;;15.68;;
47519;SDS011;33252;48.122;11.538;2023-05-23T12:39:07;21.13;;;16.20;;
47519;SDS011;33252;48.122;11.538;2023-05-23T12:41:33;17.55;;;14.35;;
47519;SDS011;33252;48.122;11.538;2023-05-23T12:43:59;19.55;;;15.82;;
47519;SDS011;33252;48.122;11.538;2023-05-23T12:46:26;20.45;;;16.17;;
47519;SDS011;33252;48.122;11.538;2023-05-23T12:48:52;21.73;;;16.65;;
47519;SDS011;33252;48.122;11.538;2023-05-23T12:51:19;23.17;;;17.17;;
47519;SDS011;33252;48.122;11.538;2023-05-23T12:53:45;18.60;;;15.55;;
47519;SDS011;33252;48.122;11.538;2023-05-23T12:56:11;22.77;;;16.02;;
47519;SDS011;33252;48.122;11.538;2023-05-23T12:58:37;18.50;;;15.77;;
47519;SDS011;33252;48.122;11.538;2023-05-23T13:01:02;15.90;;;13.05;;
47519;SDS011;33252;48.122;11.538;2023-05-23T13:03:28;17.63;;;15.00;;
47519;SDS011;33252;48.122;11.538;2023-05-23T13:05:58;18.75;;;15.38;;
47519;SDS011;33252;48.122;11.538;2023-05-23T13:08:24;19.25;;;13.88;;
47519;SDS011;33252;48.122;11.538;2023-05-23T13:10:52;16.20;;;13.35;;
47519;SDS011;33252;48.122;11.538;2023-05-23T13:13:18;15.95;;;12.18;;
47519;SDS011;33252;48.122;11.538;2023-05-23T13:15:44;15.05;;;12.18;;
47519;SDS011;33252;48.122;11.538;2023-05-23T13:18:09;15.43;;;12.82;;
47519;SDS011;33252;48.122;11.538;2023-05-23T13:20:35;14.93;;;13.20;;
47519;SDS011;33252;48.122;11.538;2023-05-23T13:23:01;19.90;;;13.77;;
47519;SDS011;33252;48.122;11.538;2023-05-23T13:25:28;14.98;;;12.88;;
47519;SDS011;33252;48.122;11.538;2023-05-23T13:27:54;17.80;;;12.60;;
47519;SDS011;33252;48.122;11.538;2023-05-23T13:30:21;15.27;;;12.40;;
47519;SDS011;33252;48.122;11.538;2023-05-23T13:32:48;14.30;;;12.07;;
47519;SDS011;33252;48.122;11.538;2023-05-23T13:35:14;15.57;;;13.38;;
47519;SDS011;33252;48.122;11.538;2023-05-23T13:37:40;13.55;;;12.20;;
47519;SDS011;33252;48.122;11.538;2023-05-23T13:40:06;16.48;;;11.40;;
47519;SDS011;33252;48.122;11.538;2023-05-23T13:42:33;16.02;;;13.10;;
47519;SDS011;33252;48.122;11.538;2023-05-23T13:44:59;17.77;;;13.20;;
47519;SDS011;33252;48.122;11.538;2023-05-23T13:47:25;15.85;;;12.63;;
47519;SDS011;33252;48.122;11.538;2023-05-23T13:49:50;15.23;;;13.63;;
47519;SDS011;33252;48.122;11.538;2023-05-23T13:52:16;14.93;;;12.85;;
47519;SDS011;33252;48.122;11.538;2023-05-23T13:54:41;16.45;;;12.68;;
47519;SDS011;33252;48.122;11.538;2023-05-23T13:57:07;13.82;;;12.38;;
47519;SDS011;33252;48.122;11.538;2023-05-23T13:59:33;13.77;;;12.18;;
47519;SDS011;33252;48.122;11.538;2023-05-23T14:01:58;16.08;;;11.63;;
47519;SDS011;33252;48.122;11.538;2023-05-23T14:04:24;13.60;;;11.25;;
47519;SDS011;33252;48.122;11.538;2023-05-23T14:06:50;12.02;;;10.82;;
47519;SDS011;33252;48.122;11.538;2023-05-23T14:09:16;16.05;;;12.18;;
47519;SDS011;33252;48.122;11.538;2023-05-23T14:11:42;13.40;;;11.95;;
47519;SDS011;33252;48.122;11.538;2023-05-23T14:14:08;16.50;;;12.93;;
47519;SDS011;33252;48.122;11.538;2023-05-23T14:16:33;15.57;;;12.40;;
47519;SDS011;33252;48.122;11.538;2023-05-23T14:18:59;13.48;;;11.82;;
47519;SDS011;33252;48.122;11.538;2023-05-23T14:21:25;15.23;;;11.88;;
47519;SDS011;33252;48.122;11.538;2023-05-23T14:23:52;12.98;;;10.68;;
47519;SDS011;33252;48.122;11.538;2023-05-23T14:26:17;15.55;;;12.48;;
47519;SDS011;33252;48.122;11.538;2023-05-23T14:28:43;16.05;;;13.13;;
47519;SDS011;33252;48.122;11.538;2023-05-23T14:31:09;13.75;;;11.88;;
47519;SDS011;33252;48.122;11.538;2023-05-23T14:33:35;13.05;;;9.60;;
47519;SDS011;33252;48.122;11.538;2023-05-23T14:36:01;12.30;;;10.07;;